createdAt,value
2023-02-27T00:00:59.804Z,0
2023-02-27T00:01:56.748Z,0
2023-02-27T00:02:57.239Z,0
2023-02-27T00:03:57.159Z,0
2023-02-27T00:04:57.008Z,0
2023-02-27T00:05:59.838Z,0
2023-02-27T00:06:57.018Z,0
2023-02-27T00:07:57.071Z,0
2023-02-27T00:08:57.328Z,0
2023-02-27T00:09:56.956Z,0
2023-02-27T00:10:57.001Z,0
2023-02-27T00:11:56.982Z,0
2023-02-27T00:12:56.932Z,0
2023-02-27T00:13:56.991Z,0
2023-02-27T00:14:56.961Z,0
2023-02-27T00:15:57.521Z,0
2023-02-27T00:16:59.816Z,0
2023-02-27T00:17:57.072Z,0
2023-02-27T00:18:56.971Z,0
2023-02-27T00:19:57.007Z,0
2023-02-27T00:20:57.005Z,0
2023-02-27T00:21:57.003Z,0
2023-02-27T00:22:57.009Z,0
2023-02-27T00:23:56.966Z,0
2023-02-27T00:24:56.997Z,0
2023-02-27T00:25:56.995Z,0
2023-02-27T00:26:56.973Z,0
2023-02-27T00:27:56.989Z,0
2023-02-27T00:28:56.978Z,0
2023-02-27T00:29:57.008Z,0
2023-02-27T00:30:57.410Z,0
2023-02-27T00:31:57.569Z,0
2023-02-27T00:33:00.137Z,0
2023-02-27T00:33:57.083Z,0
2023-02-27T00:34:57.003Z,0
2023-02-27T00:35:56.992Z,0
2023-02-27T00:36:56.985Z,0
2023-02-27T00:37:57.000Z,0
2023-02-27T00:38:56.991Z,0
2023-02-27T00:39:56.997Z,0
2023-02-27T00:40:57.024Z,0
2023-02-27T00:41:56.977Z,0
2023-02-27T00:42:57.011Z,0
2023-02-27T00:43:59.876Z,0
2023-02-27T00:44:57.024Z,0
2023-02-27T00:45:57.055Z,0
2023-02-27T00:46:57.218Z,0
2023-02-27T00:47:57.198Z,0
2023-02-27T00:49:00.170Z,0
2023-02-27T00:49:57.063Z,0
2023-02-27T00:50:57.021Z,0
2023-02-27T00:51:57.005Z,0
2023-02-27T00:52:57.057Z,0
2023-02-27T00:53:57.048Z,0
2023-02-27T00:55:00.023Z,0
2023-02-27T00:55:57.003Z,0
2023-02-27T00:56:57.037Z,0
2023-02-27T00:57:57.375Z,0
2023-02-27T00:58:57.030Z,0
2023-02-27T01:00:00.165Z,0
2023-02-27T01:01:00.349Z,0
2023-02-27T01:01:57.036Z,0
2023-02-27T01:02:57.407Z,0
2023-02-27T01:03:57.037Z,0
2023-02-27T01:04:57.128Z,0
2023-02-27T01:06:00.132Z,0
2023-02-27T01:06:57.066Z,0
2023-02-27T01:07:57.051Z,0
2023-02-27T01:08:57.041Z,0
2023-02-27T01:09:57.110Z,0
2023-02-27T01:10:59.900Z,0
2023-02-27T01:11:57.086Z,0
2023-02-27T01:12:57.035Z,0
2023-02-27T01:13:57.066Z,0
2023-02-27T01:14:57.038Z,0
2023-02-27T01:15:57.124Z,0
2023-02-27T01:17:00.144Z,0
2023-02-27T01:17:57.120Z,0
2023-02-27T01:18:57.109Z,0
2023-02-27T01:19:57.041Z,0
2023-02-27T01:20:57.204Z,0
2023-02-27T01:22:00.108Z,0
2023-02-27T01:22:57.050Z,0
2023-02-27T01:23:57.097Z,0
2023-02-27T01:24:57.032Z,0
2023-02-27T01:25:57.221Z,0
2023-02-27T01:26:57.272Z,0
2023-02-27T01:28:00.272Z,0
2023-02-27T01:28:57.079Z,0
2023-02-27T01:29:57.063Z,0
2023-02-27T01:30:57.784Z,0
2023-02-27T01:31:57.997Z,0
2023-02-27T01:33:00.361Z,0
2023-02-27T01:33:57.428Z,0
2023-02-27T01:34:57.122Z,0
2023-02-27T01:35:57.144Z,0
2023-02-27T01:36:57.185Z,0
2023-02-27T01:37:57.343Z,0
2023-02-27T01:39:00.130Z,0
2023-02-27T01:39:57.103Z,0
2023-02-27T01:40:57.118Z,0
2023-02-27T01:41:57.141Z,0
2023-02-27T01:42:57.105Z,0
2023-02-27T01:43:59.946Z,0
2023-02-27T01:44:57.113Z,0
2023-02-27T01:45:57.484Z,0
2023-02-27T01:46:57.102Z,0
2023-02-27T01:47:57.247Z,0
2023-02-27T01:49:00.180Z,0
2023-02-27T01:50:00.122Z,0
2023-02-27T01:50:57.146Z,0
2023-02-27T01:51:57.154Z,0
2023-02-27T01:52:57.133Z,0
2023-02-27T01:53:57.146Z,0
2023-02-27T01:54:59.856Z,0
2023-02-27T01:55:57.141Z,0
2023-02-27T01:56:57.108Z,0
2023-02-27T01:57:57.188Z,0
2023-02-27T01:58:57.116Z,0
2023-02-27T01:59:59.855Z,0
2023-02-27T02:00:57.512Z,0
2023-02-27T02:01:57.185Z,0
2023-02-27T02:02:57.147Z,0
2023-02-27T02:03:57.142Z,0
2023-02-27T02:04:57.135Z,0
2023-02-27T02:06:00.130Z,0
2023-02-27T02:06:57.141Z,0
2023-02-27T02:07:57.145Z,0
2023-02-27T02:08:57.150Z,0
2023-02-27T02:09:57.151Z,0
2023-02-27T02:11:00.455Z,0
2023-02-27T02:11:57.186Z,0
2023-02-27T02:12:57.137Z,0
2023-02-27T02:13:57.160Z,0
2023-02-27T02:14:57.117Z,0
2023-02-27T02:15:57.155Z,0
2023-02-27T02:17:00.732Z,0
2023-02-27T02:17:57.139Z,0
2023-02-27T02:18:57.159Z,0
2023-02-27T02:19:57.208Z,0
2023-02-27T02:20:57.138Z,0
2023-02-27T02:22:00.336Z,0
2023-02-27T02:22:57.145Z,0
2023-02-27T02:23:57.229Z,0
2023-02-27T02:24:57.182Z,0
2023-02-27T02:25:57.231Z,0
2023-02-27T02:26:57.165Z,0
2023-02-27T02:27:59.951Z,0
2023-02-27T02:28:57.216Z,0
2023-02-27T02:29:57.194Z,0
2023-02-27T02:30:57.977Z,0
2023-02-27T02:31:58.365Z,0
2023-02-27T02:33:05.894Z,0
2023-02-27T02:33:57.206Z,0
2023-02-27T02:34:57.187Z,0
2023-02-27T02:35:57.218Z,0
2023-02-27T02:36:57.265Z,0
2023-02-27T02:37:57.184Z,0
2023-02-27T02:38:57.253Z,0
2023-02-27T02:39:57.170Z,0
2023-02-27T02:40:57.278Z,0
2023-02-27T02:41:57.218Z,0
2023-02-27T02:43:00.102Z,0
2023-02-27T02:44:00.191Z,0
2023-02-27T02:44:57.204Z,0
2023-02-27T02:45:57.425Z,0
2023-02-27T02:46:57.192Z,0
2023-02-27T02:47:57.172Z,0
2023-02-27T02:48:57.206Z,0
2023-02-27T02:49:57.209Z,0
2023-02-27T02:50:57.252Z,0
2023-02-27T02:51:57.239Z,0
2023-02-27T02:52:59.149Z,0
2023-02-27T02:53:57.269Z,0
2023-02-27T02:54:57.221Z,0
2023-02-27T02:55:57.226Z,0
2023-02-27T02:56:57.224Z,0
2023-02-27T02:57:57.199Z,0
2023-02-27T02:58:57.252Z,0
2023-02-27T03:00:00.322Z,0
2023-02-27T03:00:57.246Z,0
2023-02-27T03:01:57.497Z,0
2023-02-27T03:02:57.260Z,0
2023-02-27T03:03:57.217Z,0
2023-02-27T03:04:57.238Z,0
2023-02-27T03:05:57.221Z,0
2023-02-27T03:06:57.224Z,0
2023-02-27T03:07:57.701Z,0
2023-02-27T03:08:57.208Z,0
2023-02-27T03:09:57.235Z,0
2023-02-27T03:11:00.347Z,0
2023-02-27T03:11:57.234Z,0
2023-02-27T03:12:59.483Z,0
2023-02-27T03:13:57.280Z,0
2023-02-27T03:14:57.241Z,0
2023-02-27T03:16:00.415Z,0
2023-02-27T03:16:57.519Z,0
2023-02-27T03:17:57.257Z,0
2023-02-27T03:18:57.381Z,0
2023-02-27T03:19:57.222Z,0
2023-02-27T03:20:57.298Z,0
2023-02-27T03:22:00.121Z,0
2023-02-27T03:22:57.291Z,0
2023-02-27T03:23:57.350Z,0
2023-02-27T03:24:57.291Z,0
2023-02-27T03:26:00.181Z,0
2023-02-27T03:27:00.347Z,0
2023-02-27T03:27:57.233Z,0
2023-02-27T03:28:57.291Z,0
2023-02-27T03:29:57.371Z,0
2023-02-27T03:30:57.832Z,0
2023-02-27T03:31:57.866Z,0
2023-02-27T03:33:00.090Z,0
2023-02-27T03:33:57.293Z,0
2023-02-27T03:34:57.277Z,0
2023-02-27T03:35:57.126Z,0
2023-02-27T03:36:57.336Z,0
2023-02-27T03:38:00.202Z,0
2023-02-27T03:38:57.258Z,0
2023-02-27T03:39:57.290Z,0
2023-02-27T03:40:57.301Z,0
2023-02-27T03:41:57.350Z,0
2023-02-27T03:42:57.298Z,0
2023-02-27T03:43:59.864Z,0
2023-02-27T03:44:59.243Z,0
2023-02-27T03:45:57.296Z,0
2023-02-27T03:46:57.131Z,0
2023-02-27T03:47:57.286Z,0
2023-02-27T03:49:00.441Z,0
2023-02-27T03:49:57.291Z,0
2023-02-27T03:50:57.256Z,0
2023-02-27T03:51:57.374Z,0
2023-02-27T03:52:57.281Z,0
2023-02-27T03:53:57.118Z,0
2023-02-27T03:55:00.113Z,0
2023-02-27T03:55:57.310Z,0
2023-02-27T03:56:57.317Z,0
2023-02-27T03:57:57.350Z,0
2023-02-27T03:58:57.303Z,0
2023-02-27T04:00:00.050Z,0
2023-02-27T04:00:57.342Z,0
2023-02-27T04:01:57.533Z,0
2023-02-27T04:02:57.589Z,0
2023-02-27T04:03:57.285Z,0
2023-02-27T04:05:00.350Z,0
2023-02-27T04:06:00.322Z,0
2023-02-27T04:06:57.321Z,0
2023-02-27T04:07:57.352Z,0
2023-02-27T04:08:57.301Z,0
2023-02-27T04:09:57.323Z,0
2023-02-27T04:11:00.413Z,0
2023-02-27T04:11:57.345Z,0
2023-02-27T04:12:57.341Z,0
2023-02-27T04:13:57.416Z,0
2023-02-27T04:14:57.325Z,0
2023-02-27T04:16:00.746Z,0
2023-02-27T04:16:57.373Z,0
2023-02-27T04:17:57.380Z,0
2023-02-27T04:18:59.793Z,0
2023-02-27T04:19:57.338Z,0
2023-02-27T04:20:57.374Z,0
2023-02-27T04:22:00.127Z,0
2023-02-27T04:22:57.342Z,0
2023-02-27T04:23:57.468Z,0
2023-02-27T04:24:57.406Z,0
2023-02-27T04:25:57.389Z,0
2023-02-27T04:27:00.425Z,0
2023-02-27T04:27:57.386Z,0
2023-02-27T04:28:57.342Z,0
2023-02-27T04:29:57.558Z,0
2023-02-27T04:30:57.794Z,0
2023-02-27T04:31:58.749Z,0
2023-02-27T04:33:00.575Z,0
2023-02-27T04:33:57.407Z,0
2023-02-27T04:34:57.373Z,0
2023-02-27T04:35:57.393Z,0
2023-02-27T04:36:57.379Z,0
2023-02-27T04:38:00.216Z,0
2023-02-27T04:38:57.387Z,0
2023-02-27T04:39:57.497Z,0
2023-02-27T04:40:57.415Z,0
2023-02-27T04:41:57.383Z,0
2023-02-27T04:42:57.385Z,0
2023-02-27T04:44:00.167Z,0
2023-02-27T04:44:57.411Z,0
2023-02-27T04:45:57.822Z,0
2023-02-27T04:46:57.493Z,0
2023-02-27T04:47:57.426Z,0
2023-02-27T04:48:57.584Z,0
2023-02-27T04:49:57.653Z,0
2023-02-27T04:50:57.378Z,0
2023-02-27T04:51:57.441Z,0
2023-02-27T04:52:57.429Z,0
2023-02-27T04:53:57.398Z,0
2023-02-27T04:55:00.218Z,0
2023-02-27T04:55:57.416Z,0
2023-02-27T04:56:57.434Z,0
2023-02-27T04:57:57.404Z,0
2023-02-27T04:58:57.408Z,0
2023-02-27T05:00:00.251Z,0
2023-02-27T05:00:57.416Z,0
2023-02-27T05:01:58.193Z,0
2023-02-27T05:02:57.859Z,0
2023-02-27T05:04:00.131Z,0
2023-02-27T05:04:57.396Z,0
2023-02-27T05:05:57.421Z,0
2023-02-27T05:06:57.453Z,0
2023-02-27T05:07:57.423Z,0
2023-02-27T05:08:57.470Z,0
2023-02-27T05:09:57.420Z,0
2023-02-27T05:11:00.558Z,0
2023-02-27T05:11:57.458Z,0
2023-02-27T05:12:57.455Z,0
2023-02-27T05:13:57.426Z,0
2023-02-27T05:14:57.465Z,0
2023-02-27T05:15:57.700Z,0
2023-02-27T05:16:57.523Z,0
2023-02-27T05:17:57.892Z,0
2023-02-27T05:18:57.420Z,0
2023-02-27T05:19:57.590Z,0
2023-02-27T05:20:57.426Z,0
2023-02-27T05:21:57.495Z,0
2023-02-27T05:22:57.429Z,0
2023-02-27T05:23:57.435Z,0
2023-02-27T05:24:57.495Z,0
2023-02-27T05:25:57.438Z,0
2023-02-27T05:27:00.612Z,0
2023-02-27T05:27:57.435Z,0
2023-02-27T05:28:57.424Z,0
2023-02-27T05:29:57.442Z,0
2023-02-27T05:30:57.524Z,0
2023-02-27T05:31:58.174Z,0
2023-02-27T05:32:57.486Z,0
2023-02-27T05:33:57.438Z,0
2023-02-27T05:34:57.451Z,0
2023-02-27T05:35:57.850Z,0
2023-02-27T05:36:57.485Z,0
2023-02-27T05:38:00.655Z,0
2023-02-27T05:38:57.536Z,0
2023-02-27T05:39:57.434Z,0
2023-02-27T05:40:57.517Z,0
2023-02-27T05:41:57.554Z,0
2023-02-27T05:43:00.495Z,0
2023-02-27T05:43:57.475Z,0
2023-02-27T05:44:57.459Z,0
2023-02-27T05:45:57.822Z,0
2023-02-27T05:46:57.489Z,0
2023-02-27T05:47:57.534Z,0
2023-02-27T05:49:00.221Z,0
2023-02-27T05:49:57.455Z,0
2023-02-27T05:50:58.471Z,0
2023-02-27T05:51:59.452Z,0
2023-02-27T05:52:57.555Z,0
2023-02-27T05:54:00.622Z,0
2023-02-27T05:55:03.964Z,0
2023-02-27T05:55:57.498Z,0
2023-02-27T05:56:57.520Z,0
2023-02-27T05:57:57.550Z,0
2023-02-27T05:58:57.521Z,0
2023-02-27T06:00:00.543Z,0
2023-02-27T06:00:57.498Z,0
2023-02-27T06:01:57.747Z,0
2023-02-27T06:02:57.521Z,0
2023-02-27T06:03:57.480Z,0
2023-02-27T06:05:00.557Z,0
2023-02-27T06:05:57.549Z,0
2023-02-27T06:06:57.541Z,0
2023-02-27T06:07:57.545Z,0
2023-02-27T06:08:57.501Z,0
2023-02-27T06:09:57.582Z,0
2023-02-27T06:11:00.306Z,0
2023-02-27T06:11:57.546Z,0
2023-02-27T06:12:57.596Z,0
2023-02-27T06:13:57.516Z,0
2023-02-27T06:14:57.520Z,0
2023-02-27T06:16:00.351Z,0
2023-02-27T06:16:57.881Z,0
2023-02-27T06:17:57.545Z,0
2023-02-27T06:18:57.572Z,0
2023-02-27T06:19:57.538Z,0
2023-02-27T06:20:57.564Z,0
2023-02-27T06:22:00.446Z,0
2023-02-27T06:22:57.597Z,0
2023-02-27T06:23:57.621Z,0
2023-02-27T06:24:57.517Z,0
2023-02-27T06:25:57.598Z,0
2023-02-27T06:27:00.758Z,0
2023-02-27T06:27:57.599Z,0
2023-02-27T06:28:57.557Z,0
2023-02-27T06:29:57.538Z,0
2023-02-27T06:30:57.739Z,0
2023-02-27T06:32:00.802Z,0
2023-02-27T06:33:00.554Z,0
2023-02-27T06:33:57.577Z,0
2023-02-27T06:34:57.584Z,5
2023-02-27T06:35:57.952Z,5
2023-02-27T06:36:57.541Z,5
2023-02-27T06:38:00.432Z,5
2023-02-27T06:38:57.582Z,5
2023-02-27T06:39:57.647Z,5
2023-02-27T06:40:57.525Z,5
2023-02-27T06:41:57.558Z,5
2023-02-27T06:43:01.516Z,5
2023-02-27T06:43:57.540Z,5
2023-02-27T06:44:57.561Z,10
2023-02-27T06:45:57.759Z,15
2023-02-27T06:46:57.539Z,20
2023-02-27T06:47:57.689Z,20
2023-02-27T06:49:00.560Z,20
2023-02-27T06:49:57.598Z,25
2023-02-27T06:50:57.446Z,25
2023-02-27T06:51:57.539Z,25
2023-02-27T06:52:57.713Z,20
2023-02-27T06:54:00.716Z,20
2023-02-27T06:54:57.541Z,20
2023-02-27T06:55:57.588Z,25
2023-02-27T06:56:57.607Z,30
2023-02-27T06:57:57.468Z,35
2023-02-27T06:58:59.466Z,35
2023-02-27T07:00:00.486Z,45
2023-02-27T07:00:57.585Z,55
2023-02-27T07:01:57.553Z,45
2023-02-27T07:02:57.635Z,35
2023-02-27T07:03:58.660Z,35
2023-02-27T07:05:01.134Z,35
2023-02-27T07:05:57.675Z,35
2023-02-27T07:07:45.546Z,40
2023-02-27T07:07:58.652Z,40
2023-02-27T07:09:15.128Z,35
2023-02-27T07:09:57.798Z,40
2023-02-27T07:11:00.279Z,40
2023-02-27T07:11:57.726Z,45
2023-02-27T07:12:57.728Z,45
2023-02-27T07:13:57.628Z,40
2023-02-27T07:14:57.801Z,40
2023-02-27T07:16:00.994Z,35
2023-02-27T07:16:57.603Z,35
2023-02-27T07:17:57.706Z,35
2023-02-27T07:18:57.640Z,35
2023-02-27T07:19:57.604Z,50
2023-02-27T07:20:57.609Z,65
2023-02-27T07:22:00.637Z,70
2023-02-27T07:22:57.708Z,75
2023-02-27T07:23:57.675Z,75
2023-02-27T07:24:57.655Z,75
2023-02-27T07:25:57.617Z,80
2023-02-27T07:27:00.665Z,80
2023-02-27T07:27:57.738Z,80
2023-02-27T07:28:57.617Z,80
2023-02-27T07:29:57.626Z,80
2023-02-27T07:30:57.936Z,80
2023-02-27T07:31:58.001Z,80
2023-02-27T07:32:57.674Z,80
2023-02-27T07:33:57.607Z,80
2023-02-27T07:34:57.765Z,80
2023-02-27T07:35:58.218Z,80
2023-02-27T07:36:57.672Z,80
2023-02-27T07:37:59.261Z,80
2023-02-27T07:38:57.685Z,80
2023-02-27T07:39:57.616Z,80
2023-02-27T07:40:57.649Z,80
2023-02-27T07:41:57.657Z,80
2023-02-27T07:43:00.028Z,80
2023-02-27T07:43:57.618Z,80
2023-02-27T07:44:57.659Z,80
2023-02-27T07:45:57.661Z,80
2023-02-27T07:46:58.202Z,80
2023-02-27T07:47:57.731Z,80
2023-02-27T07:48:58.699Z,80
2023-02-27T07:49:57.701Z,80
2023-02-27T07:50:57.656Z,80
2023-02-27T07:51:57.724Z,80
2023-02-27T07:52:57.773Z,80
2023-02-27T07:54:00.818Z,80
2023-02-27T07:54:57.722Z,80
2023-02-27T07:55:57.722Z,80
2023-02-27T07:56:57.709Z,80
2023-02-27T07:57:57.686Z,80
2023-02-27T07:58:58.283Z,80
2023-02-27T07:59:57.703Z,80
2023-02-27T08:00:57.712Z,80
2023-02-27T08:01:57.881Z,80
2023-02-27T08:02:58.066Z,80
2023-02-27T08:03:57.767Z,80
2023-02-27T08:05:00.714Z,80
2023-02-27T08:05:57.707Z,85
2023-02-27T08:06:57.707Z,80
2023-02-27T08:07:57.690Z,80
2023-02-27T08:08:57.700Z,85
2023-02-27T08:10:00.629Z,80
2023-02-27T08:10:57.766Z,85
2023-02-27T08:11:58.472Z,85
2023-02-27T08:12:57.759Z,85
2023-02-27T08:14:10.277Z,85
2023-02-27T08:14:58.035Z,85
2023-02-27T08:16:00.952Z,85
2023-02-27T08:16:57.715Z,85
2023-02-27T08:17:57.728Z,85
2023-02-27T08:18:57.751Z,85
2023-02-27T08:19:58.335Z,85
2023-02-27T08:21:00.780Z,85
2023-02-27T08:21:57.706Z,85
2023-02-27T08:22:57.942Z,85
2023-02-27T08:23:57.720Z,85
2023-02-27T08:24:57.730Z,85
2023-02-27T08:25:57.804Z,85
2023-02-27T08:27:00.574Z,85
2023-02-27T08:27:57.784Z,85
2023-02-27T08:28:57.746Z,85
2023-02-27T08:29:58.309Z,85
2023-02-27T08:30:57.779Z,85
2023-02-27T08:32:01.263Z,85
2023-02-27T08:32:57.851Z,85
2023-02-27T08:34:19.924Z,90
2023-02-27T08:35:01.372Z,85
2023-02-27T08:35:57.996Z,90
2023-02-27T08:36:57.719Z,85
2023-02-27T08:37:59.421Z,85
2023-02-27T08:38:57.707Z,85
2023-02-27T08:39:57.743Z,85
2023-02-27T08:40:57.747Z,85
2023-02-27T08:41:57.809Z,85
2023-02-27T08:43:00.798Z,85
2023-02-27T08:43:57.756Z,85
2023-02-27T08:44:57.751Z,85
2023-02-27T08:45:58.349Z,85
2023-02-27T08:46:57.777Z,85
2023-02-27T08:47:57.742Z,85
2023-02-27T08:49:00.779Z,85
2023-02-27T08:49:57.775Z,85
2023-02-27T08:51:00.124Z,90
2023-02-27T08:51:57.720Z,85
2023-02-27T08:52:57.757Z,85
2023-02-27T08:54:00.553Z,85
2023-02-27T08:54:57.737Z,85
2023-02-27T08:55:57.825Z,75
2023-02-27T08:56:57.804Z,85
2023-02-27T08:57:57.777Z,50
2023-02-27T08:58:58.405Z,90
2023-02-27T09:00:00.820Z,90
2023-02-27T09:00:58.038Z,45
2023-02-27T09:01:57.841Z,85
2023-02-27T09:02:58.556Z,90
2023-02-27T09:03:57.814Z,25
2023-02-27T09:05:00.934Z,90
2023-02-27T09:05:57.782Z,20
2023-02-27T09:06:57.781Z,25
2023-02-27T09:07:57.758Z,90
2023-02-27T09:08:57.759Z,90
2023-02-27T09:10:00.883Z,20
2023-02-27T09:11:00.760Z,60
2023-02-27T09:11:57.844Z,90
2023-02-27T09:12:57.765Z,90
2023-02-27T09:13:57.904Z,90
2023-02-27T09:14:57.823Z,90
2023-02-27T09:16:00.800Z,90
2023-02-27T09:16:58.208Z,90
2023-02-27T09:17:57.866Z,90
2023-02-27T09:18:57.867Z,90
2023-02-27T09:19:59.755Z,80
2023-02-27T09:21:00.960Z,95
2023-02-27T09:21:57.800Z,90
2023-02-27T09:22:57.840Z,95
2023-02-27T09:23:58.031Z,90
2023-02-27T09:24:57.931Z,90
2023-02-27T09:25:57.785Z,90
2023-02-27T09:27:01.960Z,90
2023-02-27T09:27:57.808Z,90
2023-02-27T09:28:57.831Z,85
2023-02-27T09:29:57.899Z,90
2023-02-27T09:30:57.825Z,30
2023-02-27T09:32:01.676Z,25
2023-02-27T09:32:58.101Z,45
2023-02-27T09:33:57.913Z,25
2023-02-27T09:34:57.820Z,60
2023-02-27T09:35:58.243Z,75
2023-02-27T09:36:57.842Z,90
2023-02-27T09:38:00.682Z,30
2023-02-27T09:38:57.844Z,30
2023-02-27T09:39:57.916Z,25
2023-02-27T09:40:57.870Z,30
2023-02-27T09:41:57.875Z,60
2023-02-27T09:43:01.000Z,20
2023-02-27T09:43:57.848Z,20
2023-02-27T09:44:57.836Z,95
2023-02-27T09:45:58.169Z,20
2023-02-27T09:46:57.788Z,100
2023-02-27T09:47:57.822Z,100
2023-02-27T09:49:00.843Z,100
2023-02-27T09:49:57.788Z,100
2023-02-27T09:50:57.801Z,90
2023-02-27T09:52:00.139Z,60
2023-02-27T09:52:57.900Z,100
2023-02-27T09:53:59.298Z,80
2023-02-27T09:54:57.812Z,100
2023-02-27T09:55:57.817Z,95
2023-02-27T09:56:57.819Z,100
2023-02-27T09:57:57.825Z,100
2023-02-27T09:58:57.862Z,100
2023-02-27T09:59:59.665Z,95
2023-02-27T10:00:57.843Z,95
2023-02-27T10:01:57.857Z,95
2023-02-27T10:02:58.260Z,95
2023-02-27T10:03:57.927Z,90
2023-02-27T10:05:01.669Z,90
2023-02-27T10:05:57.827Z,90
2023-02-27T10:06:57.873Z,95
2023-02-27T10:07:57.832Z,90
2023-02-27T10:08:57.925Z,90
2023-02-27T10:09:57.872Z,95
2023-02-27T10:10:57.673Z,95
2023-02-27T10:11:57.871Z,90
2023-02-27T10:12:57.901Z,90
2023-02-27T10:13:57.846Z,90
2023-02-27T10:14:57.897Z,90
2023-02-27T10:15:57.843Z,90
2023-02-27T10:16:58.191Z,90
2023-02-27T10:17:57.948Z,90
2023-02-27T10:18:57.883Z,90
2023-02-27T10:19:57.934Z,90
2023-02-27T10:21:00.812Z,90
2023-02-27T10:21:57.876Z,90
2023-02-27T10:22:57.891Z,95
2023-02-27T10:23:57.752Z,90
2023-02-27T10:24:58.017Z,90
2023-02-27T10:25:57.889Z,90
2023-02-27T10:26:57.868Z,95
2023-02-27T10:27:57.731Z,95
2023-02-27T10:28:57.926Z,95
2023-02-27T10:29:57.879Z,80
2023-02-27T10:30:58.265Z,30
2023-02-27T10:32:01.315Z,90
2023-02-27T10:32:57.896Z,90
2023-02-27T10:33:57.989Z,90
2023-02-27T10:34:57.957Z,90
2023-02-27T10:35:58.366Z,90
2023-02-27T10:37:00.982Z,85
2023-02-27T10:37:57.874Z,85
2023-02-27T10:38:57.921Z,85
2023-02-27T10:39:57.904Z,85
2023-02-27T10:40:58.010Z,85
2023-02-27T10:41:57.907Z,45
2023-02-27T10:43:00.929Z,90
2023-02-27T10:43:57.918Z,85
2023-02-27T10:44:57.907Z,85
2023-02-27T10:45:58.268Z,85
2023-02-27T10:47:00.889Z,85
2023-02-27T10:48:00.892Z,15
2023-02-27T10:48:57.936Z,15
2023-02-27T10:49:57.939Z,15
2023-02-27T10:50:57.915Z,15
2023-02-27T10:51:57.981Z,15
2023-02-27T10:52:57.955Z,20
2023-02-27T10:54:01.028Z,20
2023-02-27T10:54:57.976Z,20
2023-02-27T10:55:57.896Z,20
2023-02-27T10:56:57.937Z,25
2023-02-27T10:57:57.984Z,20
2023-02-27T10:59:00.708Z,20
2023-02-27T10:59:57.963Z,20
2023-02-27T11:00:57.940Z,15
2023-02-27T11:01:58.158Z,15
2023-02-27T11:02:57.933Z,15
2023-02-27T11:03:57.990Z,15
2023-02-27T11:05:00.996Z,15
2023-02-27T11:05:57.964Z,10
2023-02-27T11:06:57.917Z,10
2023-02-27T11:07:57.989Z,10
2023-02-27T11:08:59.522Z,10
2023-02-27T11:10:00.852Z,10
2023-02-27T11:10:57.933Z,10
2023-02-27T11:11:57.945Z,10
2023-02-27T11:12:58.145Z,10
2023-02-27T11:13:59.608Z,10
2023-02-27T11:14:57.968Z,15
2023-02-27T11:16:01.079Z,15
2023-02-27T11:16:57.918Z,20
2023-02-27T11:17:57.935Z,65
2023-02-27T11:18:58.003Z,65
2023-02-27T11:19:57.973Z,70
2023-02-27T11:21:00.705Z,70
2023-02-27T11:21:57.972Z,70
2023-02-27T11:22:57.937Z,45
2023-02-27T11:23:58.187Z,20
2023-02-27T11:24:58.012Z,20
2023-02-27T11:26:00.775Z,20
2023-02-27T11:27:00.743Z,20
2023-02-27T11:27:57.961Z,40
2023-02-27T11:28:57.994Z,20
2023-02-27T11:29:58.189Z,20
2023-02-27T11:30:58.161Z,30
2023-02-27T11:32:01.416Z,50
2023-02-27T11:32:58.041Z,70
2023-02-27T11:33:57.997Z,70
2023-02-27T11:34:57.940Z,35
2023-02-27T11:36:06.715Z,35
2023-02-27T11:37:00.727Z,20
2023-02-27T11:38:00.746Z,20
2023-02-27T11:38:58.021Z,20
2023-02-27T11:39:58.052Z,20
2023-02-27T11:40:58.045Z,20
2023-02-27T11:41:58.060Z,20
2023-02-27T11:43:00.954Z,20
2023-02-27T11:43:57.977Z,20
2023-02-27T11:45:01.327Z,20
2023-02-27T11:46:56.063Z,20
2023-02-27T11:48:08.354Z,20
2023-02-27T11:49:08.517Z,20
2023-02-27T11:50:05.742Z,20
2023-02-27T11:51:05.706Z,20
2023-02-27T11:52:05.727Z,20
2023-02-27T11:53:05.691Z,20
2023-02-27T11:54:05.666Z,20
2023-02-27T11:55:08.687Z,20
2023-02-27T11:56:05.700Z,50
2023-02-27T11:57:05.697Z,30
2023-02-27T11:58:05.705Z,25
2023-02-27T11:59:05.708Z,25
2023-02-27T12:00:08.470Z,30
2023-02-27T12:01:05.680Z,35
2023-02-27T12:02:05.656Z,25
2023-02-27T12:03:06.214Z,25
2023-02-27T12:04:05.936Z,25
2023-02-27T12:05:05.658Z,30
2023-02-27T12:06:05.706Z,30
2023-02-27T12:07:05.709Z,30
2023-02-27T12:08:05.734Z,25
2023-02-27T12:09:05.682Z,20
2023-02-27T12:10:05.691Z,20
2023-02-27T12:11:21.668Z,25
2023-02-27T12:12:05.645Z,20
2023-02-27T12:13:05.854Z,20
2023-02-27T12:14:08.429Z,20
2023-02-27T12:15:07.019Z,35
2023-02-27T12:16:09.963Z,25
2023-02-27T12:17:05.665Z,50
2023-02-27T12:18:05.694Z,50
2023-02-27T12:19:05.757Z,45
2023-02-27T12:20:05.701Z,45
2023-02-27T12:21:05.697Z,25
2023-02-27T12:22:05.754Z,20
2023-02-27T12:23:05.669Z,20
2023-02-27T12:24:05.747Z,20
2023-02-27T12:25:05.695Z,15
2023-02-27T12:26:05.748Z,10
2023-02-27T12:27:08.855Z,10
2023-02-27T12:28:05.719Z,10
2023-02-27T12:29:05.837Z,10
2023-02-27T12:30:05.716Z,10
2023-02-27T12:31:05.729Z,10
2023-02-27T12:32:06.477Z,10
2023-02-27T12:33:05.752Z,10
2023-02-27T12:34:05.694Z,10
2023-02-27T12:35:05.754Z,10
2023-02-27T12:36:06.077Z,15
2023-02-27T12:37:05.715Z,15
2023-02-27T12:38:07.928Z,15
2023-02-27T12:39:05.736Z,20
2023-02-27T12:40:05.773Z,20
2023-02-27T12:41:05.679Z,35
2023-02-27T12:42:05.732Z,15
2023-02-27T12:43:10.849Z,35
2023-02-27T12:44:05.720Z,40
2023-02-27T12:45:05.776Z,35
2023-02-27T12:46:06.095Z,40
2023-02-27T12:47:05.723Z,40
2023-02-27T12:48:08.525Z,40
2023-02-27T12:49:05.830Z,25
2023-02-27T12:50:05.715Z,15
2023-02-27T12:51:05.746Z,15
2023-02-27T12:52:05.709Z,20
2023-02-27T12:53:05.742Z,40
2023-02-27T12:54:08.687Z,40
2023-02-27T12:55:05.711Z,15
2023-02-27T12:56:05.850Z,20
2023-02-27T12:57:05.743Z,25
2023-02-27T12:58:05.736Z,15
2023-02-27T12:59:08.812Z,20
2023-02-27T13:00:05.685Z,30
2023-02-27T13:01:06.954Z,20
2023-02-27T13:02:05.724Z,15
2023-02-27T13:03:05.798Z,15
2023-02-27T13:04:06.063Z,15
2023-02-27T13:05:08.825Z,15
2023-02-27T13:06:05.897Z,15
2023-02-27T13:07:05.746Z,35
2023-02-27T13:08:05.744Z,35
2023-02-27T13:09:05.835Z,35
2023-02-27T13:10:08.509Z,40
2023-02-27T13:11:05.768Z,40
2023-02-27T13:12:05.794Z,35
2023-02-27T13:13:05.660Z,35
2023-02-27T13:14:05.879Z,35
2023-02-27T13:15:05.917Z,35
2023-02-27T13:16:09.114Z,35
2023-02-27T13:17:05.912Z,40
2023-02-27T13:18:05.988Z,40
2023-02-27T13:19:05.756Z,20
2023-02-27T13:20:05.828Z,20
2023-02-27T13:21:08.866Z,45
2023-02-27T13:22:05.617Z,45
2023-02-27T13:23:05.809Z,45
2023-02-27T13:24:05.851Z,45
2023-02-27T13:25:05.769Z,45
2023-02-27T13:26:05.824Z,45
2023-02-27T13:27:08.518Z,45
2023-02-27T13:28:05.852Z,45
2023-02-27T13:29:05.830Z,50
2023-02-27T13:30:05.763Z,50
2023-02-27T13:31:05.810Z,45
2023-02-27T13:32:09.418Z,45
2023-02-27T13:33:06.659Z,45
2023-02-27T13:34:05.819Z,45
2023-02-27T13:35:06.780Z,30
2023-02-27T13:36:06.234Z,20
2023-02-27T13:37:05.936Z,20
2023-02-27T13:38:08.649Z,20
2023-02-27T13:39:05.869Z,20
2023-02-27T13:40:05.863Z,15
2023-02-27T13:41:05.774Z,15
2023-02-27T13:42:05.814Z,15
2023-02-27T13:43:08.893Z,10
2023-02-27T13:44:05.827Z,10
2023-02-27T13:45:05.788Z,10
2023-02-27T13:46:06.198Z,10
2023-02-27T13:47:06.059Z,10
2023-02-27T13:48:06.160Z,10
2023-02-27T13:49:14.638Z,10
2023-02-27T13:50:05.800Z,10
2023-02-27T13:51:05.766Z,10
2023-02-27T13:52:06.008Z,15
2023-02-27T13:53:07.738Z,15
2023-02-27T13:54:08.678Z,15
2023-02-27T13:55:19.024Z,15
2023-02-27T13:56:05.821Z,20
2023-02-27T13:57:05.822Z,15
2023-02-27T13:58:05.866Z,15
2023-02-27T13:59:07.231Z,15
2023-02-27T14:00:08.931Z,15
2023-02-27T14:02:21.447Z,15
2023-02-27T14:03:09.824Z,45
2023-02-27T14:04:05.849Z,45
2023-02-27T14:05:10.338Z,45
2023-02-27T14:06:05.805Z,45
2023-02-27T14:07:05.818Z,45
2023-02-27T14:08:05.940Z,20
2023-02-27T14:09:23.311Z,25
2023-02-27T14:10:06.020Z,45
2023-02-27T14:11:08.596Z,45
2023-02-27T14:12:05.781Z,45
2023-02-27T14:13:05.869Z,45
2023-02-27T14:14:06.231Z,30
2023-02-27T14:15:05.897Z,15
2023-02-27T14:16:11.246Z,10
2023-02-27T14:17:05.921Z,10
2023-02-27T14:18:38.822Z,10
2023-02-27T14:19:05.934Z,10
2023-02-27T14:20:06.422Z,10
2023-02-27T14:21:05.836Z,10
2023-02-27T14:22:10.697Z,10
2023-02-27T14:23:05.790Z,10
2023-02-27T14:24:05.917Z,10
2023-02-27T14:25:12.126Z,10
2023-02-27T14:26:05.851Z,10
2023-02-27T14:27:08.837Z,10
2023-02-27T14:28:06.410Z,10
2023-02-27T14:29:05.913Z,10
2023-02-27T14:30:05.856Z,10
2023-02-27T14:31:06.308Z,10
2023-02-27T14:32:09.321Z,10